Time;durP1;ratioP1;P1;durP2;ratioP2;P2;SDS_P1;SDS_P2;PMS_P1;PMS_P2;Temp;Humidity;BMP_temperature;BMP_pressure;BME280_temperature;BME280_humidity;BME280_pressure;Samples;Min_cycle;Max_cycle;Signal;HPM_P1;HPM_P2
2022/12/18 00:01:25;;;;;;;47.40;18.03;;;;;;;-2.43;65.30;101968.16;5090609;28;20456;-63
2022/12/18 00:03:57;;;;;;;48.43;19.57;;;;;;;-2.49;65.67;101963.94;5103465;27;20489;-63
2022/12/18 00:06:27;;;;;;;52.97;18.27;;;;;;;-2.47;65.84;101971.72;5104794;27;20451;-63
2022/12/18 00:08:56;;;;;;;48.23;17.87;;;;;;;-2.38;65.49;101961.16;5095902;28;20502;-63
2022/12/18 00:11:28;;;;;;;49.47;17.80;;;;;;;-2.41;65.09;101954.28;5101015;27;21218;-63
2022/12/18 00:13:58;;;;;;;46.93;16.77;;;;;;;-2.54;65.12;101955.38;5101402;28;20456;-62
2022/12/18 00:16:27;;;;;;;41.70;15.97;;;;;;;-2.58;65.73;101953.75;5105897;27;20830;-63
2022/12/18 00:19:00;;;;;;;48.67;17.53;;;;;;;-2.43;65.77;101950.84;5104578;28;20490;-63
2022/12/18 00:21:30;;;;;;;52.97;17.63;;;;;;;-2.47;65.52;101953.53;5100796;28;20944;-64
2022/12/18 00:23:58;;;;;;;51.50;18.20;;;;;;;-2.66;66.25;101966.88;5092399;28;20457;-63
2022/12/18 00:26:30;;;;;;;46.07;17.40;;;;;;;-2.69;66.60;101974.72;5105247;28;20457;-62
2022/12/18 00:28:59;;;;;;;56.17;18.93;;;;;;;-2.69;66.52;101977.31;5098658;28;20488;-63
2022/12/18 00:31:27;;;;;;;53.57;17.10;;;;;;;-2.81;66.66;101985.28;5106713;28;20468;-63
2022/12/18 00:33:56;;;;;;;47.20;17.47;;;;;;;-2.79;66.38;101980.94;5105135;28;20482;-63
2022/12/18 00:36:26;;;;;;;48.70;17.63;;;;;;;-2.52;65.91;101978.72;5106048;28;20546;-63
2022/12/18 00:38:54;;;;;;;44.97;15.70;;;;;;;-2.53;65.28;101985.66;5108049;28;20491;-62
2022/12/18 00:44:12;;;;;;;42.83;15.47;;;;;;;-2.68;65.66;101984.22;5107202;28;20914;-63
2022/12/18 00:46:39;;;;;;;37.43;15.13;;;;;;;-2.62;65.22;101982.38;5108675;28;20599;-64
2022/12/18 00:49:08;;;;;;;41.83;15.00;;;;;;;-2.59;65.24;101985.78;5108309;28;20466;-63
2022/12/18 00:51:35;;;;;;;46.17;15.23;;;;;;;-2.60;64.92;101988.41;5100554;28;20471;-63
2022/12/18 00:54:03;;;;;;;36.70;14.10;;;;;;;-2.68;64.81;101980.75;5106576;28;20456;-63
2022/12/18 00:56:32;;;;;;;39.97;14.87;;;;;;;-2.76;64.68;101986.09;5109447;27;20872;-66
2022/12/18 00:59:00;;;;;;;39.07;14.20;;;;;;;-2.71;64.60;101988.59;5107707;28;20492;-63
2022/12/18 01:01:29;;;;;;;33.43;13.30;;;;;;;-2.78;64.39;101976.59;5101433;27;20471;-64
2022/12/18 01:03:59;;;;;;;36.20;14.77;;;;;;;-2.95;64.51;101981.22;5109587;28;20571;-62
2022/12/18 01:06:33;;;;;;;37.60;13.90;;;;;;;-2.91;64.58;101977.72;5106541;28;20463;-63
2022/12/18 01:09:01;;;;;;;35.80;13.87;;;;;;;-2.91;64.37;101968.19;5106764;28;20440;-63
2022/12/18 01:11:31;;;;;;;40.83;14.87;;;;;;;-2.82;64.16;101967.19;5103814;28;20483;-63
2022/12/18 01:14:01;;;;;;;41.23;14.43;;;;;;;-2.97;64.30;101959.63;5099092;27;21004;-63
2022/12/18 01:16:30;;;;;;;40.27;14.80;;;;;;;-2.97;64.17;101967.41;5110571;28;20460;-62
2022/12/18 01:19:00;;;;;;;33.83;13.57;;;;;;;-3.06;64.04;101971.88;5105495;28;20492;-65
2022/12/18 01:21:28;;;;;;;39.17;14.67;;;;;;;-3.14;64.21;101978.09;5108768;28;21231;-62
2022/12/18 01:23:57;;;;;;;40.10;14.70;;;;;;;-3.20;64.52;101980.78;5107462;28;20462;-62
2022/12/18 01:26:29;;;;;;;43.33;15.90;;;;;;;-3.25;64.80;101979.97;5106734;28;20459;-64
2022/12/18 01:28:58;;;;;;;38.83;15.17;;;;;;;-3.31;65.11;101985.28;5099363;28;20477;-64
2022/12/18 01:31:27;;;;;;;45.97;16.50;;;;;;;-3.33;65.16;101981.84;5109524;28;20459;-63
2022/12/18 01:33:57;;;;;;;39.80;15.43;;;;;;;-3.46;65.26;101971.66;5105913;28;20987;-63
2022/12/18 01:36:27;;;;;;;41.13;15.13;;;;;;;-3.42;65.61;101977.66;5106628;28;20882;-65
2022/12/18 01:38:55;;;;;;;45.97;16.47;;;;;;;-3.36;65.35;101992.28;5106499;28;20495;-63
2022/12/18 01:41:25;;;;;;;46.30;15.90;;;;;;;-3.41;65.24;101995.78;5107695;28;20456;-63
2022/12/18 01:43:54;;;;;;;46.17;17.17;;;;;;;-3.47;65.53;101998.47;5093268;28;20465;-63
2022/12/18 01:46:27;;;;;;;43.60;16.00;;;;;;;-3.50;65.63;101995.91;5093011;28;20448;-64
2022/12/18 01:48:59;;;;;;;42.97;15.63;;;;;;;-3.46;65.46;102002.78;5107003;28;20467;-63
2022/12/18 01:51:27;;;;;;;42.87;15.07;;;;;;;-3.38;65.16;101996.63;5104903;28;20452;-64
2022/12/18 01:53:55;;;;;;;40.37;15.57;;;;;;;-3.42;64.83;101983.69;5104364;28;20462;-62
2022/12/18 01:56:23;;;;;;;46.53;16.57;;;;;;;-3.39;65.07;101997.50;5104832;28;20460;-63
2022/12/18 01:58:55;;;;;;;42.03;16.17;;;;;;;-3.40;64.97;101996.66;5103788;28;20475;-63
2022/12/18 02:01:24;;;;;;;48.70;16.90;;;;;;;-3.35;64.73;101992.25;5100614;28;20505;-63
2022/12/18 02:03:53;;;;;;;54.90;17.27;;;;;;;-3.29;64.67;101999.94;5093481;28;20471;-63
2022/12/18 02:06:30;;;;;;;47.90;16.30;;;;;;;-3.35;64.43;101999.19;5098393;28;20465;-62
2022/12/18 02:09:09;;;;;;;47.17;18.17;;;;;;;-3.40;64.60;101999.25;5102993;28;20459;-63
2022/12/18 02:11:48;;;;;;;44.13;15.27;;;;;;;-3.41;64.95;102000.13;5097193;28;20496;-63
2022/12/18 02:14:24;;;;;;;45.70;15.33;;;;;;;-3.32;64.65;102002.56;5102743;28;20510;-63
2022/12/18 02:16:58;;;;;;;47.37;17.27;;;;;;;-3.22;64.53;102000.69;5103749;28;20452;-62
2022/12/18 02:19:48;;;;;;;44.23;16.90;;;;;;;-3.13;64.16;102005.75;5102906;28;20493;-62
2022/12/18 02:22:28;;;;;;;40.47;15.87;;;;;;;-3.05;63.85;102009.06;5095943;28;20961;-62
2022/12/18 02:25:11;;;;;;;48.80;16.43;;;;;;;-3.08;63.98;101998.75;5095725;28;21027;-63
2022/12/18 02:27:42;;;;;;;49.50;17.33;;;;;;;-3.07;63.84;101992.66;5097365;28;20452;-63
2022/12/18 02:30:11;;;;;;;43.60;15.93;;;;;;;-3.19;64.02;101990.28;5058424;27;1274176;-62
2022/12/18 02:32:42;;;;;;;43.40;15.77;;;;;;;-3.35;64.54;101986.22;5105127;28;20230;-63
2022/12/18 02:35:17;;;;;;;54.37;17.77;;;;;;;-3.38;64.83;101981.06;5102094;28;20459;-63
2022/12/18 02:37:47;;;;;;;48.90;16.77;;;;;;;-3.49;64.90;101979.47;5104420;28;20448;-62
2022/12/18 02:40:18;;;;;;;45.60;18.23;;;;;;;-3.43;65.09;101968.19;5098291;28;20490;-62
2022/12/18 02:42:47;;;;;;;44.43;15.30;;;;;;;-3.39;65.23;101966.38;5092340;28;20460;-63
2022/12/18 02:45:15;;;;;;;49.90;17.43;;;;;;;-3.45;65.32;101965.59;5104504;27;20488;-64
2022/12/18 02:47:52;;;;;;;45.40;15.77;;;;;;;-3.47;65.47;101959.56;5108393;27;20778;-62
2022/12/18 02:50:27;;;;;;;46.87;18.07;;;;;;;-3.50;65.23;101967.41;5102075;27;20463;-62
2022/12/18 02:53:04;;;;;;;45.63;16.57;;;;;;;-3.56;65.39;101956.25;5103956;28;20456;-62
2022/12/18 02:55:49;;;;;;;46.00;17.40;;;;;;;-3.61;65.60;101965.84;5096043;28;20999;-63
2022/12/18 02:58:21;;;;;;;39.03;15.83;;;;;;;-3.60;65.53;101963.22;5103016;28;20534;-63
2022/12/18 03:00:55;;;;;;;46.03;17.93;;;;;;;-3.65;65.51;101959.84;5109230;27;20487;-62
2022/12/18 03:03:28;;;;;;;49.60;17.63;;;;;;;-3.64;65.63;101956.38;5100199;27;20475;-62
2022/12/18 03:06:02;;;;;;;54.07;17.40;;;;;;;-3.60;65.32;101970.13;5105212;27;20456;-63
2022/12/18 03:08:36;;;;;;;43.27;15.43;;;;;;;-3.64;65.32;101987.50;5089042;27;20460;-62
2022/12/18 03:11:07;;;;;;;44.53;16.93;;;;;;;-3.65;65.63;101985.78;5100040;27;20454;-63
2022/12/18 03:13:40;;;;;;;47.17;17.30;;;;;;;-3.65;65.75;101971.94;5104347;27;20804;-62
2022/12/18 03:16:12;;;;;;;40.53;15.53;;;;;;;-3.68;65.87;101961.63;5101118;27;20555;-62
2022/12/18 03:18:45;;;;;;;36.03;14.10;;;;;;;-3.68;65.93;101953.84;5102311;28;20469;-63
2022/12/18 03:21:17;;;;;;;41.83;14.93;;;;;;;-3.66;66.20;101958.13;5106477;27;20889;-63
2022/12/18 03:23:48;;;;;;;49.00;17.17;;;;;;;-3.55;66.15;101965.75;5102130;27;20456;-62
2022/12/18 03:26:20;;;;;;;48.17;16.87;;;;;;;-3.62;66.29;101964.13;5103961;27;20460;-63
2022/12/18 03:28:53;;;;;;;46.23;17.03;;;;;;;-3.70;66.52;101977.22;5102884;27;20560;-64
2022/12/18 03:31:23;;;;;;;46.13;15.80;;;;;;;-3.66;66.53;101981.47;5095428;27;20456;-64
2022/12/18 03:33:54;;;;;;;44.57;16.33;;;;;;;-3.64;66.09;101974.53;5105087;27;20448;-63
2022/12/18 03:36:23;;;;;;;45.10;15.77;;;;;;;-3.56;66.35;101975.28;5102551;27;20456;-63
2022/12/18 03:38:52;;;;;;;50.20;16.40;;;;;;;-3.50;65.63;101975.16;5100167;27;20456;-62
2022/12/18 03:41:34;;;;;;;44.30;16.30;;;;;;;-3.47;65.48;101967.34;5102213;27;20483;-63
2022/12/18 03:44:11;;;;;;;40.97;16.47;;;;;;;-3.56;65.38;101954.53;5101920;28;20900;-63
2022/12/18 03:46:46;;;;;;;39.40;15.43;;;;;;;-3.56;65.41;101964.91;5102770;27;20586;-62
2022/12/18 03:49:22;;;;;;;44.37;16.47;;;;;;;-3.50;65.02;101975.16;5099908;27;21256;-63
2022/12/18 03:52:07;;;;;;;41.10;16.43;;;;;;;-3.45;64.92;101975.97;5101299;28;20452;-63
2022/12/18 03:54:37;;;;;;;44.17;15.80;;;;;;;-3.51;64.12;101973.47;5102000;27;20480;-63
2022/12/18 03:57:10;;;;;;;40.67;17.00;;;;;;;-3.50;64.06;101980.34;5104454;27;20856;-63
2022/12/18 03:59:40;;;;;;;44.03;16.30;;;;;;;-3.57;64.20;101983.94;5107580;27;20484;-62
2022/12/18 04:02:09;;;;;;;42.80;15.13;;;;;;;-3.51;64.23;101978.63;5103608;28;20462;-63
2022/12/18 04:04:41;;;;;;;47.53;17.27;;;;;;;-3.54;64.21;101978.72;5109093;27;20459;-63
2022/12/18 04:07:09;;;;;;;42.07;16.23;;;;;;;-3.60;64.55;101978.78;5107119;28;20470;-63
2022/12/18 04:09:37;;;;;;;46.57;17.97;;;;;;;-3.66;64.60;101963.31;5102466;28;20452;-63
2022/12/18 04:12:05;;;;;;;40.00;16.13;;;;;;;-3.76;64.86;101964.31;5101036;28;20477;-63
2022/12/18 04:14:35;;;;;;;44.33;16.10;;;;;;;-3.78;65.09;101973.00;5103420;28;20459;-62
2022/12/18 04:17:04;;;;;;;45.37;17.03;;;;;;;-3.85;65.28;101961.84;5106638;28;20873;-63
2022/12/18 04:19:32;;;;;;;50.33;18.30;;;;;;;-3.86;65.46;101960.13;5105975;27;20461;-62
2022/12/18 04:22:00;;;;;;;41.53;16.67;;;;;;;-3.77;65.43;101960.00;5104545;28;20455;-62
2022/12/18 04:24:28;;;;;;;45.57;17.47;;;;;;;-3.72;65.29;101958.22;5097872;28;20464;-62
2022/12/18 04:26:55;;;;;;;48.33;16.73;;;;;;;-3.72;64.49;101958.22;5089111;28;20484;-62
2022/12/18 04:29:23;;;;;;;51.67;16.77;;;;;;;-3.83;64.69;101955.78;5099288;28;20487;-62
2022/12/18 04:31:51;;;;;;;47.37;16.93;;;;;;;-3.91;64.79;101962.81;5096172;28;20455;-62
2022/12/18 04:34:20;;;;;;;42.43;17.20;;;;;;;-4.01;64.90;101952.56;5101427;28;20450;-63
2022/12/18 04:36:48;;;;;;;38.73;15.53;;;;;;;-4.08;64.97;101959.56;5102955;28;20463;-63
2022/12/18 04:39:18;;;;;;;39.80;16.03;;;;;;;-4.14;65.01;101958.78;5104492;28;20455;-63
2022/12/18 04:41:46;;;;;;;41.87;15.90;;;;;;;-4.09;64.98;101957.84;5102047;28;20476;-62
2022/12/18 04:44:14;;;;;;;39.47;14.87;;;;;;;-4.13;64.83;101953.56;5088239;28;20465;-63
2022/12/18 04:46:42;;;;;;;45.10;14.47;;;;;;;-4.20;64.96;101955.38;5088329;28;20465;-63
2022/12/18 04:49:10;;;;;;;40.13;15.50;;;;;;;-4.13;64.84;101960.53;5094362;28;20517;-64
2022/12/18 04:51:39;;;;;;;44.23;16.87;;;;;;;-4.03;64.27;101962.94;5099614;28;20506;-64
2022/12/18 04:54:07;;;;;;;48.50;16.13;;;;;;;-4.14;64.58;101974.34;5098280;28;20940;-63
2022/12/18 04:56:35;;;;;;;41.67;14.73;;;;;;;-4.23;64.60;101976.16;5095801;28;20453;-61
2022/12/18 04:59:03;;;;;;;39.67;15.77;;;;;;;-4.30;64.87;101968.47;5100324;28;20941;-62
2022/12/18 05:01:33;;;;;;;50.53;17.30;;;;;;;-4.29;64.99;101970.19;5096724;28;20492;-61
2022/12/18 05:04:01;;;;;;;38.83;16.03;;;;;;;-4.34;65.07;101975.44;5103269;28;21229;-62
2022/12/18 05:06:29;;;;;;;39.53;14.73;;;;;;;-4.34;65.13;101971.97;5101270;28;20496;-63
2022/12/18 05:08:59;;;;;;;38.80;14.23;;;;;;;-4.26;64.61;101973.59;5093912;28;20500;-62
2022/12/18 05:11:27;;;;;;;35.77;13.60;;;;;;;-4.30;64.42;101964.13;5104595;28;20472;-63
2022/12/18 05:13:57;;;;;;;40.30;15.37;;;;;;;-4.38;64.59;101971.16;5108401;28;20460;-62
2022/12/18 05:16:25;;;;;;;37.60;14.73;;;;;;;-4.43;64.93;101978.13;5108266;28;20797;-62
2022/12/18 05:18:53;;;;;;;42.10;17.17;;;;;;;-4.48;65.57;101971.25;5104097;28;21000;-62
2022/12/18 05:21:21;;;;;;;44.40;15.70;;;;;;;-4.12;64.84;101972.56;5105812;28;20479;-63
2022/12/18 05:23:48;;;;;;;43.70;15.37;;;;;;;-4.12;64.61;101973.44;5109060;28;21003;-64
2022/12/18 05:26:19;;;;;;;39.17;16.00;;;;;;;-4.22;64.19;101970.09;5108662;28;20456;-62
2022/12/18 05:28:50;;;;;;;42.63;15.40;;;;;;;-4.32;64.35;101971.09;5109584;27;20582;-62
2022/12/18 05:31:18;;;;;;;49.17;18.20;;;;;;;-4.38;64.39;101968.56;5103810;28;20448;-62
2022/12/18 05:33:52;;;;;;;47.33;17.33;;;;;;;-4.46;64.80;101972.97;5106695;28;20525;-63
2022/12/18 05:36:19;;;;;;;47.87;17.77;;;;;;;-4.50;65.41;101973.88;5111697;28;20460;-63
2022/12/18 05:38:47;;;;;;;46.03;16.57;;;;;;;-4.45;65.76;101982.44;5112374;27;20820;-62
2022/12/18 05:41:15;;;;;;;43.27;15.67;;;;;;;-4.38;66.00;101975.47;5107938;27;20478;-62
2022/12/18 05:43:44;;;;;;;41.63;15.50;;;;;;;-4.33;66.08;101973.69;5112375;27;20820;-61
2022/12/18 05:46:14;;;;;;;44.00;16.10;;;;;;;-4.19;65.84;101971.78;5107405;27;20482;-63
2022/12/18 05:48:42;;;;;;;38.87;16.07;;;;;;;-4.13;65.72;101969.13;5105342;27;20460;-64
2022/12/18 05:51:12;;;;;;;48.10;16.80;;;;;;;-4.13;65.96;101969.13;5108596;27;20533;-63
2022/12/18 05:53:39;;;;;;;41.17;15.43;;;;;;;-4.04;65.77;101976.78;5106190;27;20820;-62
2022/12/18 05:56:10;;;;;;;41.17;14.53;;;;;;;-4.07;65.87;101975.97;5094701;28;20474;-63
2022/12/18 05:58:38;;;;;;;47.80;17.30;;;;;;;-4.10;65.96;101976.00;5108923;27;20456;-63
2022/12/18 06:01:11;;;;;;;43.50;15.83;;;;;;;-4.10;66.18;101981.19;5106430;27;20487;-62
2022/12/18 06:03:39;;;;;;;46.43;16.50;;;;;;;-4.02;65.96;101982.81;5107222;27;20467;-62
2022/12/18 06:06:14;;;;;;;43.50;16.03;;;;;;;-4.07;66.32;101976.84;5108049;27;20499;-62
2022/12/18 06:08:42;;;;;;;41.97;15.93;;;;;;;-4.09;66.29;101988.09;5107932;27;20470;-62
2022/12/18 06:11:13;;;;;;;52.60;17.53;;;;;;;-3.78;65.80;101978.19;5101768;27;20567;-62
2022/12/18 06:13:41;;;;;;;45.93;17.73;;;;;;;-3.78;65.55;101999.75;5106343;27;20586;-63
2022/12/18 06:16:11;;;;;;;43.70;15.97;;;;;;;-3.84;65.59;101989.50;5106111;27;20596;-62
2022/12/18 06:18:39;;;;;;;43.57;16.57;;;;;;;-3.78;65.68;101991.16;5109491;27;20488;-62
2022/12/18 06:21:07;;;;;;;44.73;15.93;;;;;;;-3.73;65.22;101998.00;5106895;27;21148;-62
2022/12/18 06:23:35;;;;;;;49.70;17.20;;;;;;;-3.72;65.13;102007.47;5108065;27;20447;-61
2022/12/18 06:26:07;;;;;;;39.23;15.87;;;;;;;-3.57;64.83;102004.66;5090287;27;20472;-63
2022/12/18 06:28:35;;;;;;;45.57;16.20;;;;;;;-3.64;64.68;102004.78;5093011;27;21179;-63
2022/12/18 06:31:04;;;;;;;50.43;16.00;;;;;;;-3.74;64.85;102010.97;5103068;28;20448;-63
2022/12/18 06:33:33;;;;;;;37.53;15.83;;;;;;;-3.88;65.11;102012.00;5102584;28;22159;-63
2022/12/18 06:36:02;;;;;;;41.70;15.03;;;;;;;-3.98;65.64;102014.72;5105069;28;20466;-64
2022/12/18 06:38:30;;;;;;;41.40;16.23;;;;;;;-4.05;65.95;102015.69;5103998;28;20456;-63
2022/12/18 06:40:58;;;;;;;50.37;16.53;;;;;;;-4.04;66.12;102013.06;5103674;27;20465;-63
2022/12/18 06:43:26;;;;;;;45.67;15.73;;;;;;;-4.04;65.89;102010.47;5104918;28;20517;-62
2022/12/18 06:46:02;;;;;;;51.17;17.57;;;;;;;-4.08;66.35;102031.25;5105940;28;20462;-63
2022/12/18 06:48:30;;;;;;;44.50;15.40;;;;;;;-4.09;66.49;102042.50;5106811;28;20459;-63
2022/12/18 06:51:00;;;;;;;41.10;15.13;;;;;;;-4.06;66.35;102039.88;5105770;28;20449;-63
2022/12/18 06:53:28;;;;;;;36.27;15.87;;;;;;;-4.10;66.43;102049.41;5104029;27;20459;-63
2022/12/18 06:56:01;;;;;;;42.17;16.00;;;;;;;-4.03;66.20;102029.47;5104926;28;20818;-63
2022/12/18 06:58:36;;;;;;;35.27;14.60;;;;;;;-4.07;65.99;102032.97;5085697;28;20455;-61
2022/12/18 07:01:06;;;;;;;37.07;14.40;;;;;;;-4.09;66.08;102037.31;5103522;27;20462;-62
2022/12/18 07:03:34;;;;;;;39.30;14.20;;;;;;;-4.07;66.26;102044.22;5099546;27;20510;-62
2022/12/18 07:06:03;;;;;;;38.80;14.00;;;;;;;-4.15;66.11;102033.06;5096493;28;20798;-62
2022/12/18 07:08:32;;;;;;;44.50;16.43;;;;;;;-4.17;66.18;102042.59;5106124;28;20452;-61
2022/12/18 07:11:00;;;;;;;45.43;16.10;;;;;;;-4.21;66.42;102041.75;5108807;28;20540;-61
2022/12/18 07:13:27;;;;;;;39.70;14.50;;;;;;;-4.14;66.45;102039.97;5109170;28;20460;-61
2022/12/18 07:15:55;;;;;;;42.77;15.07;;;;;;;-4.10;66.13;102041.63;5106348;28;20836;-64
2022/12/18 07:18:23;;;;;;;36.47;14.20;;;;;;;-4.12;66.08;102033.00;5101090;28;21160;-61
2022/12/18 07:20:51;;;;;;;40.37;14.93;;;;;;;-4.12;66.01;102035.59;5104654;28;20451;-62
2022/12/18 07:23:20;;;;;;;43.97;14.87;;;;;;;-4.17;65.98;102037.41;5105986;28;20483;-62
2022/12/18 07:25:47;;;;;;;42.37;15.10;;;;;;;-4.14;66.00;102027.03;5102988;28;20461;-62
2022/12/18 07:28:16;;;;;;;45.07;15.60;;;;;;;-4.03;65.38;102029.47;5082178;28;20814;-64
2022/12/18 07:30:44;;;;;;;35.97;14.73;;;;;;;-4.05;65.33;102031.25;5105043;27;20471;-62
2022/12/18 07:33:12;;;;;;;39.73;15.83;;;;;;;-3.91;64.60;102035.38;5100564;27;21798;-63
2022/12/18 07:35:39;;;;;;;41.77;15.03;;;;;;;-3.80;64.12;102038.69;5092144;27;20551;-63
2022/12/18 07:38:07;;;;;;;39.30;14.67;;;;;;;-3.70;63.26;102039.44;5098651;27;20468;-64
2022/12/18 07:40:39;;;;;;;43.43;15.90;;;;;;;-3.59;62.87;102037.53;5089835;28;20479;-62
2022/12/18 07:43:06;;;;;;;48.80;17.67;;;;;;;-3.45;62.31;102039.97;5106712;27;20475;-61
2022/12/18 07:45:34;;;;;;;42.27;15.50;;;;;;;-3.41;61.73;102034.69;5105646;27;20461;-62
2022/12/18 07:48:02;;;;;;;42.70;15.43;;;;;;;-3.67;62.17;102031.59;5108181;27;20470;-61
2022/12/18 07:50:29;;;;;;;43.77;15.63;;;;;;;-3.73;62.17;102041.19;5103554;27;20445;-62
2022/12/18 07:52:57;;;;;;;39.90;15.43;;;;;;;-3.83;62.80;102040.47;5105063;27;20460;-63
2022/12/18 07:55:25;;;;;;;43.37;16.43;;;;;;;-3.76;62.84;102055.06;5105950;27;20483;-63
2022/12/18 07:57:55;;;;;;;40.07;14.57;;;;;;;-3.82;62.88;102049.94;5098608;28;20464;-62
2022/12/18 08:00:27;;;;;;;44.37;14.70;;;;;;;-3.65;62.35;102053.19;5104516;27;20592;-62
2022/12/18 08:02:55;;;;;;;40.40;16.17;;;;;;;-3.71;62.63;102061.06;5100660;27;20416;-57
2022/12/18 08:05:23;;;;;;;47.43;15.57;;;;;;;-3.87;63.20;102056.94;5102275;28;20229;-59
2022/12/18 08:07:51;;;;;;;44.20;16.23;;;;;;;-3.99;63.65;102057.94;5108243;27;20456;-58
2022/12/18 08:10:19;;;;;;;42.53;15.40;;;;;;;-4.00;64.01;102065.72;5106331;28;21705;-59
2022/12/18 08:12:50;;;;;;;44.73;16.50;;;;;;;-3.73;63.28;102062.81;5103754;28;20467;-55
2022/12/18 08:15:19;;;;;;;36.73;15.93;;;;;;;-3.84;63.20;102068.09;5100672;28;20463;-59
2022/12/18 08:17:47;;;;;;;41.77;16.30;;;;;;;-3.95;63.21;102069.09;5099228;28;20862;-60
2022/12/18 08:20:15;;;;;;;43.53;16.50;;;;;;;-3.92;63.30;102069.94;5098678;27;20551;-59
2022/12/18 08:22:43;;;;;;;41.10;16.43;;;;;;;-3.88;63.50;102075.94;5098252;28;20490;-60
2022/12/18 08:25:11;;;;;;;45.80;17.57;;;;;;;-3.78;63.00;102070.63;5102099;28;20481;-60
2022/12/18 08:27:39;;;;;;;45.00;17.00;;;;;;;-3.79;62.94;102068.06;5100485;28;20498;-60
2022/12/18 08:30:08;;;;;;;43.23;16.80;;;;;;;-3.78;62.90;102059.38;5099291;28;20840;-58
2022/12/18 08:32:40;;;;;;;42.00;15.97;;;;;;;-3.86;62.78;102053.44;5099486;28;20466;-58
2022/12/18 08:35:08;;;;;;;43.97;16.90;;;;;;;-3.93;63.40;102051.81;5098795;28;21082;-60
2022/12/18 08:37:37;;;;;;;45.07;17.63;;;;;;;-3.97;63.69;102044.97;5101037;28;20488;-59
2022/12/18 08:40:06;;;;;;;48.10;17.87;;;;;;;-3.94;63.81;102035.41;5102820;28;20539;-58
2022/12/18 08:45:19;;;;;;;48.13;16.20;;;;;;;-3.86;63.98;102041.34;5093281;28;20454;-59
2022/12/18 08:47:48;;;;;;;44.20;16.77;;;;;;;-3.86;63.87;102043.06;5102782;28;20455;-58
2022/12/18 08:50:16;;;;;;;43.73;17.53;;;;;;;-3.81;64.11;102041.31;5101968;28;20459;-59
2022/12/18 08:52:44;;;;;;;47.20;18.13;;;;;;;-3.65;63.91;102032.44;5100860;28;20452;-58
2022/12/18 08:55:12;;;;;;;45.57;17.77;;;;;;;-3.20;62.61;102022.31;5099959;28;20794;-59
2022/12/18 08:57:39;;;;;;;45.80;17.70;;;;;;;-2.83;61.57;102026.03;5099066;27;21130;-59
2022/12/18 09:00:08;;;;;;;43.67;17.20;;;;;;;-2.91;61.20;102019.25;5106430;27;20463;-56
2022/12/18 09:02:36;;;;;;;44.90;17.97;;;;;;;-3.00;61.47;102017.66;5099333;27;20477;-59
2022/12/18 09:05:08;;;;;;;46.03;18.63;;;;;;;-3.00;61.25;102009.03;5112272;27;20546;-61
2022/12/18 09:07:36;;;;;;;45.90;19.13;;;;;;;-2.99;61.31;102018.53;5108251;27;22030;-58
2022/12/18 09:10:07;;;;;;;46.23;18.13;;;;;;;-2.93;61.23;102016.69;5098328;27;20455;-61
2022/12/18 09:12:34;;;;;;;47.77;19.10;;;;;;;-2.85;61.00;102020.00;5104175;27;20964;-61
2022/12/18 09:15:03;;;;;;;48.73;18.40;;;;;;;-2.67;60.97;102018.84;5112102;27;20541;-58
2022/12/18 09:17:31;;;;;;;44.43;18.63;;;;;;;-2.45;60.49;102022.75;5104538;27;20469;-60
2022/12/18 09:19:59;;;;;;;46.63;19.90;;;;;;;-2.31;59.90;102030.31;5104777;27;20456;-59
2022/12/18 09:22:28;;;;;;;53.83;20.23;;;;;;;-2.20;59.22;102046.56;5109827;27;20456;-59
2022/12/18 09:24:55;;;;;;;49.43;19.00;;;;;;;-2.10;58.92;102035.06;5107365;27;20542;-59
2022/12/18 09:27:24;;;;;;;44.80;18.23;;;;;;;-1.98;58.50;102029.66;5090477;27;20479;-61
2022/12/18 09:29:51;;;;;;;48.30;17.47;;;;;;;-2.01;58.36;102032.28;5095654;28;20499;-59
2022/12/18 09:32:19;;;;;;;47.70;18.13;;;;;;;-1.99;58.28;102032.28;5108307;27;20456;-57
2022/12/18 09:34:49;;;;;;;38.20;16.77;;;;;;;-2.04;58.25;102034.97;5100289;28;20973;-59
2022/12/18 09:37:17;;;;;;;39.50;16.97;;;;;;;-1.88;58.41;102042.47;5108689;27;20461;-59
2022/12/18 09:39:46;;;;;;;45.40;19.37;;;;;;;-1.81;57.91;102046.66;5096742;27;20460;-59
2022/12/18 09:42:20;;;;;;;41.00;18.30;;;;;;;-1.79;57.63;102057.88;5100948;27;20532;-58
2022/12/18 09:44:51;;;;;;;43.67;18.17;;;;;;;-1.83;58.10;102064.00;5109456;27;20521;-58
2022/12/18 09:47:23;;;;;;;52.73;18.80;;;;;;;-1.92;58.14;102063.31;5115948;27;20519;-58
2022/12/18 09:49:56;;;;;;;40.50;17.10;;;;;;;-1.71;57.91;102058.56;5114303;27;20932;-58
2022/12/18 09:52:28;;;;;;;40.70;18.37;;;;;;;-1.71;57.63;102068.97;5113820;27;20448;-59
2022/12/18 09:55:01;;;;;;;40.67;16.70;;;;;;;-1.62;57.29;102071.41;5104894;27;20485;-59
2022/12/18 09:57:33;;;;;;;46.00;17.87;;;;;;;-1.52;56.94;102075.53;5109517;27;20458;-60
2022/12/18 10:00:07;;;;;;;42.30;18.37;;;;;;;-1.62;56.73;102068.78;5114501;27;20994;-58
2022/12/18 10:02:34;;;;;;;42.47;18.63;;;;;;;-1.59;57.08;102074.81;5107660;27;20452;-59
2022/12/18 10:05:14;;;;;;;44.13;17.67;;;;;;;-1.49;56.94;102059.81;5103419;28;20465;-59
2022/12/18 10:07:50;;;;;;;44.07;17.43;;;;;;;-1.43;56.79;102056.25;5108929;27;20537;-59
2022/12/18 10:10:32;;;;;;;44.17;18.10;;;;;;;-1.33;56.32;102049.97;5106007;27;20456;-59
2022/12/18 10:13:08;;;;;;;36.37;16.63;;;;;;;-1.21;56.14;102060.06;5090854;28;20464;-62
2022/12/18 10:15:45;;;;;;;45.30;24.30;;;;;;;-0.83;55.59;102062.66;5089153;28;20448;-61
2022/12/18 10:18:23;;;;;;;40.53;19.63;;;;;;;-0.80;55.13;102056.53;5096546;27;20215;-60
2022/12/18 10:20:53;;;;;;;44.87;19.30;;;;;;;-0.92;55.56;102051.59;5100368;28;20262;-61
2022/12/18 10:23:29;;;;;;;38.77;17.43;;;;;;;-1.06;55.90;102057.16;5100323;27;20483;-60
2022/12/18 10:26:03;;;;;;;48.13;19.23;;;;;;;-1.20;56.44;102062.66;5093952;28;20207;-63
2022/12/18 10:28:32;;;;;;;48.13;19.50;;;;;;;-1.01;56.41;102050.06;5099889;28;21201;-62
2022/12/18 10:31:00;;;;;;;44.50;18.60;;;;;;;-0.76;56.39;102042.50;5105791;28;20449;-62
2022/12/18 10:33:32;;;;;;;42.70;18.93;;;;;;;-0.40;55.43;102035.50;5106353;28;20210;-62
2022/12/18 10:36:01;;;;;;;40.13;17.17;;;;;;;0.14;54.47;102033.13;5102744;28;20201;-62
2022/12/18 10:38:31;;;;;;;41.13;18.23;;;;;;;0.53;53.27;102032.88;5100852;28;20201;-61
2022/12/18 10:41:02;;;;;;;47.23;19.63;;;;;;;0.62;53.10;102024.75;5108226;28;20607;-62
2022/12/18 10:43:32;;;;;;;45.47;18.60;;;;;;;0.72;52.88;102027.03;5098840;28;20223;-62
2022/12/18 10:46:06;;;;;;;43.77;19.47;;;;;;;1.07;52.01;102033.75;5093088;28;20214;-62
2022/12/18 10:48:48;;;;;;;41.60;20.63;;;;;;;1.46;50.71;102030.72;5106179;28;20679;-61
2022/12/18 10:51:26;;;;;;;41.87;19.43;;;;;;;1.56;50.62;102034.75;5106670;28;20252;-61
2022/12/18 10:54:02;;;;;;;45.17;20.43;;;;;;;1.70;50.55;102037.72;5106907;28;20313;-61
2022/12/18 10:56:37;;;;;;;41.80;20.40;;;;;;;1.50;49.76;102030.56;5099068;28;20323;-62
2022/12/18 10:59:07;;;;;;;43.83;20.57;;;;;;;1.24;50.37;102029.72;5099104;28;20203;-62
2022/12/18 11:01:55;;;;;;;41.90;21.73;;;;;;;1.07;51.74;102032.88;5102672;28;20242;-63
2022/12/18 11:04:27;;;;;;;43.70;21.57;;;;;;;1.46;51.42;102046.41;5102518;28;20300;-59
2022/12/18 11:07:00;;;;;;;45.43;21.03;;;;;;;1.68;51.05;102041.28;5102179;28;20591;-62
2022/12/18 11:09:28;;;;;;;44.70;22.13;;;;;;;2.01;50.32;102034.03;5106559;28;20726;-62
2022/12/18 11:12:02;;;;;;;45.37;22.00;;;;;;;2.13;49.22;102039.66;5097636;28;20271;-62
2022/12/18 11:14:34;;;;;;;43.03;21.03;;;;;;;2.80;48.15;102033.63;5096017;28;20829;-62
2022/12/18 11:17:04;;;;;;;46.67;22.97;;;;;;;2.97;47.84;102039.06;5105338;28;20548;-62
2022/12/18 11:19:57;;;;;;;45.23;21.90;;;;;;;2.92;47.58;102040.97;5092762;28;20212;-62
2022/12/18 11:22:28;;;;;;;44.97;23.63;;;;;;;2.80;48.13;102028.38;5103207;28;20210;-62
2022/12/18 11:24:59;;;;;;;49.73;22.70;;;;;;;2.55;48.80;102016.22;5107529;28;20310;-61
2022/12/18 11:27:53;;;;;;;41.63;21.40;;;;;;;2.41;49.41;102017.69;5087432;28;20207;-62
2022/12/18 11:30:26;;;;;;;47.10;23.30;;;;;;;2.10;49.75;102021.47;5102326;28;20286;-61